AUA25C LOWW-EPKK
Flight info
| Callsign | AUA25C |
|---|---|
| Flight time | 1h 6m |
| Altitude | 29000 |
| Route | LEDVA DCT NETIR |
| Aircraft | A20N/M-SDE2E3FGHIRWXY/LB1 |
Departure
| Time | 2026-04-26 18:22 |
|---|---|
| Airport | Vienna International Airport (LOWW) |
Arrival
| Time | 2026-04-26 19:28 |
|---|---|
| Airport | Kraków John Paul II International Airport (EPKK) |
| Time | Latitude | Longitude | Altitude | Speed | Heading |
|---|---|---|---|---|---|
| 2026-04-26 17:17 | 48.12019 | 16.55608 | 582 ft | 0 kts | 118° |
| 2026-04-26 18:08 | 48.12021 | 16.55600 | 582 ft | 2 kts | 118° |
| 2026-04-26 18:08 | 48.12028 | 16.55581 | 582 ft | 2 kts | 117° |
| 2026-04-26 18:08 | 48.12035 | 16.55561 | 582 ft | 2 kts | 117° |
| 2026-04-26 18:08 | 48.12042 | 16.55544 | 582 ft | 2 kts | 152° |
| 2026-04-26 18:09 | 48.12056 | 16.55541 | 582 ft | 0 kts | 200° |
| 2026-04-26 18:09 | 48.12061 | 16.55545 | 582 ft | 1 kts | 210° |
| 2026-04-26 18:09 | 48.12064 | 16.55547 | 582 ft | 0 kts | 207° |
| 2026-04-26 18:11 | 48.12062 | 16.55546 | 581 ft | 0 kts | 207° |
| 2026-04-26 18:12 | 48.12046 | 16.55533 | 582 ft | 6 kts | 207° |
| 2026-04-26 18:12 | 48.12001 | 16.55501 | 583 ft | 7 kts | 205° |
| 2026-04-26 18:12 | 48.11950 | 16.55466 | 583 ft | 9 kts | 206° |
| 2026-04-26 18:12 | 48.11880 | 16.55479 | 583 ft | 15 kts | 115° |
| 2026-04-26 18:13 | 48.11831 | 16.55654 | 583 ft | 21 kts | 116° |
| 2026-04-26 18:13 | 48.11757 | 16.55875 | 584 ft | 26 kts | 115° |
| 2026-04-26 18:13 | 48.11675 | 16.56129 | 589 ft | 27 kts | 116° |
| 2026-04-26 18:13 | 48.11620 | 16.56295 | 592 ft | 25 kts | 116° |
| 2026-04-26 18:14 | 48.11527 | 16.56577 | 601 ft | 20 kts | 116° |
| 2026-04-26 18:14 | 48.11460 | 16.56787 | 604 ft | 23 kts | 115° |
| 2026-04-26 18:14 | 48.11391 | 16.56997 | 606 ft | 21 kts | 116° |
| 2026-04-26 18:14 | 48.11325 | 16.57201 | 605 ft | 22 kts | 115° |
| 2026-04-26 18:15 | 48.11256 | 16.57415 | 601 ft | 23 kts | 116° |
| 2026-04-26 18:15 | 48.11183 | 16.57636 | 596 ft | 19 kts | 117° |
| 2026-04-26 18:15 | 48.11155 | 16.57719 | 596 ft | 5 kts | 119° |
| 2026-04-26 18:15 | 48.11084 | 16.57782 | 598 ft | 21 kts | 166° |
| 2026-04-26 18:16 | 48.10879 | 16.57862 | 599 ft | 39 kts | 165° |
| 2026-04-26 18:16 | 48.10366 | 16.58080 | 606 ft | 26 kts | 164° |
| 2026-04-26 18:16 | 48.10196 | 16.58153 | 606 ft | 25 kts | 165° |
| 2026-04-26 18:17 | 48.10028 | 16.58226 | 607 ft | 24 kts | 165° |
| 2026-04-26 18:17 | 48.09868 | 16.58291 | 606 ft | 24 kts | 164° |
| 2026-04-26 18:17 | 48.09705 | 16.58360 | 605 ft | 24 kts | 164° |
| 2026-04-26 18:17 | 48.09545 | 16.58428 | 604 ft | 23 kts | 164° |
| 2026-04-26 18:18 | 48.09385 | 16.58496 | 603 ft | 24 kts | 165° |
| 2026-04-26 18:18 | 48.09222 | 16.58564 | 600 ft | 24 kts | 165° |
| 2026-04-26 18:18 | 48.09077 | 16.58625 | 596 ft | 21 kts | 164° |
| 2026-04-26 18:18 | 48.08944 | 16.58681 | 591 ft | 15 kts | 165° |
| 2026-04-26 18:19 | 48.08858 | 16.58720 | 588 ft | 13 kts | 155° |
| 2026-04-26 18:19 | 48.08802 | 16.58812 | 583 ft | 8 kts | 112° |
| 2026-04-26 18:19 | 48.08785 | 16.58894 | 581 ft | 8 kts | 93° |
| 2026-04-26 18:19 | 48.08790 | 16.58934 | 580 ft | 4 kts | 76° |
| 2026-04-26 18:20 | 48.08817 | 16.59023 | 579 ft | 15 kts | 52° |
| 2026-04-26 18:20 | 48.08931 | 16.59105 | 579 ft | 16 kts | 355° |
| 2026-04-26 18:20 | 48.08963 | 16.59096 | 580 ft | 0 kts | 344° |
| 2026-04-26 18:21 | 48.08981 | 16.59089 | 581 ft | 16 kts | 345° |
| 2026-04-26 18:21 | 48.09349 | 16.58934 | 591 ft | 92 kts | 345° |
| 2026-04-26 18:21 | 48.10172 | 16.58586 | 610 ft | 151 kts | 345° |
| 2026-04-26 18:21 | 48.11209 | 16.58133 | 1179 ft | 157 kts | 345° |
| 2026-04-26 18:22 | 48.12257 | 16.57704 | 1908 ft | 161 kts | 351° |
| 2026-04-26 18:22 | 48.13331 | 16.57778 | 2638 ft | 160 kts | 18° |
| 2026-04-26 18:22 | 48.14385 | 16.58523 | 3096 ft | 177 kts | 27° |
| 2026-04-26 18:22 | 48.15513 | 16.59475 | 3567 ft | 197 kts | 27° |
| 2026-04-26 18:23 | 48.16764 | 16.60499 | 4020 ft | 219 kts | 26° |
| 2026-04-26 18:23 | 48.18189 | 16.61538 | 4577 ft | 237 kts | 23° |
| 2026-04-26 18:23 | 48.19702 | 16.62701 | 4943 ft | 254 kts | 26° |
| 2026-04-26 18:23 | 48.21255 | 16.64058 | 4980 ft | 257 kts | 27° |
| 2026-04-26 18:24 | 48.22786 | 16.65430 | 4991 ft | 256 kts | 28° |
| 2026-04-26 18:24 | 48.24315 | 16.66764 | 4993 ft | 255 kts | 25° |
| 2026-04-26 18:24 | 48.25898 | 16.67977 | 5088 ft | 259 kts | 24° |
| 2026-04-26 18:24 | 48.27586 | 16.68941 | 5772 ft | 263 kts | 8° |
| 2026-04-26 18:25 | 48.29364 | 16.69346 | 6899 ft | 260 kts | 3° |
| 2026-04-26 18:25 | 48.31132 | 16.69652 | 7886 ft | 263 kts | 2° |
| 2026-04-26 18:25 | 48.32948 | 16.69980 | 8802 ft | 267 kts | 3° |
| 2026-04-26 18:25 | 48.34792 | 16.70341 | 9704 ft | 272 kts | 3° |
| 2026-04-26 18:26 | 48.36659 | 16.70728 | 10542 ft | 277 kts | 4° |
| 2026-04-26 18:26 | 48.38622 | 16.71145 | 11083 ft | 294 kts | 4° |
| 2026-04-26 18:26 | 48.40707 | 16.71599 | 11550 ft | 312 kts | 5° |
| 2026-04-26 18:26 | 48.42898 | 16.72086 | 11968 ft | 330 kts | 5° |
| 2026-04-26 18:27 | 48.45239 | 16.72613 | 12342 ft | 349 kts | 5° |
| 2026-04-26 18:27 | 48.47710 | 16.73173 | 12665 ft | 367 kts | 6° |
| 2026-04-26 18:27 | 48.50270 | 16.73757 | 13031 ft | 382 kts | 6° |
| 2026-04-26 18:27 | 48.52896 | 16.74360 | 13659 ft | 388 kts | 6° |
| 2026-04-26 18:28 | 48.55552 | 16.74972 | 14381 ft | 390 kts | 6° |
| 2026-04-26 18:28 | 48.58248 | 16.75593 | 15076 ft | 393 kts | 6° |
| 2026-04-26 18:28 | 48.60974 | 16.76219 | 15612 ft | 401 kts | 6° |
| 2026-04-26 18:28 | 48.63755 | 16.76857 | 16155 ft | 407 kts | 6° |
| 2026-04-26 18:29 | 48.66543 | 16.77498 | 16755 ft | 410 kts | 6° |
| 2026-04-26 18:29 | 48.69371 | 16.78200 | 17368 ft | 415 kts | 9° |
| 2026-04-26 18:29 | 48.72089 | 16.79710 | 17899 ft | 425 kts | 24° |
| 2026-04-26 18:29 | 48.74536 | 16.82318 | 18452 ft | 437 kts | 39° |
| 2026-04-26 18:30 | 48.76551 | 16.85770 | 18994 ft | 445 kts | 47° |
| 2026-04-26 18:30 | 48.78475 | 16.89465 | 19506 ft | 449 kts | 48° |
| 2026-04-26 18:30 | 48.80379 | 16.93170 | 19996 ft | 453 kts | 48° |
| 2026-04-26 18:30 | 48.82314 | 16.96947 | 20633 ft | 453 kts | 48° |
| 2026-04-26 18:31 | 48.84241 | 17.00697 | 21198 ft | 455 kts | 48° |
| 2026-04-26 18:31 | 48.86190 | 17.04485 | 21657 ft | 459 kts | 48° |
| 2026-04-26 18:31 | 48.88160 | 17.08313 | 22103 ft | 463 kts | 48° |
| 2026-04-26 18:31 | 48.90154 | 17.12187 | 22573 ft | 466 kts | 48° |
| 2026-04-26 18:32 | 48.92132 | 17.16031 | 23003 ft | 470 kts | 48° |
| 2026-04-26 18:32 | 48.94159 | 17.19977 | 23420 ft | 473 kts | 48° |
| 2026-04-26 18:32 | 48.96187 | 17.23932 | 23815 ft | 477 kts | 48° |
| 2026-04-26 18:32 | 48.98215 | 17.27893 | 24199 ft | 479 kts | 47° |
| 2026-04-26 18:33 | 49.00253 | 17.31880 | 24608 ft | 481 kts | 47° |
| 2026-04-26 18:33 | 49.02287 | 17.35865 | 25139 ft | 479 kts | 47° |
| 2026-04-26 18:33 | 49.04311 | 17.39839 | 25691 ft | 477 kts | 47° |
| 2026-04-26 18:33 | 49.06348 | 17.43841 | 26176 ft | 477 kts | 47° |
| 2026-04-26 18:34 | 49.08370 | 17.47817 | 26635 ft | 477 kts | 47° |
| 2026-04-26 18:34 | 49.10383 | 17.51785 | 27093 ft | 477 kts | 47° |
| 2026-04-26 18:34 | 49.12419 | 17.55798 | 27547 ft | 477 kts | 47° |
| 2026-04-26 18:34 | 49.14445 | 17.59801 | 27960 ft | 478 kts | 47° |
| 2026-04-26 18:35 | 49.16470 | 17.63806 | 28337 ft | 479 kts | 46° |
| 2026-04-26 18:35 | 49.18510 | 17.67845 | 28665 ft | 481 kts | 47° |
| 2026-04-26 18:35 | 49.20534 | 17.71857 | 28979 ft | 483 kts | 47° |
| 2026-04-26 18:35 | 49.22597 | 17.75957 | 29242 ft | 485 kts | 47° |
| 2026-04-26 18:36 | 49.26677 | 17.84083 | 29265 ft | 485 kts | 47° |
| 2026-04-26 18:36 | 49.30770 | 17.92263 | 29267 ft | 486 kts | 47° |
| 2026-04-26 18:37 | 49.34878 | 18.00497 | 29268 ft | 487 kts | 47° |
| 2026-04-26 18:37 | 49.38968 | 18.08722 | 29263 ft | 487 kts | 47° |
| 2026-04-26 18:38 | 49.43051 | 18.16954 | 29257 ft | 486 kts | 47° |
| 2026-04-26 18:38 | 49.47107 | 18.25161 | 29254 ft | 486 kts | 47° |
| 2026-04-26 18:39 | 49.51194 | 18.33457 | 29251 ft | 486 kts | 47° |
| 2026-04-26 18:39 | 49.55248 | 18.41710 | 28913 ft | 485 kts | 46° |
| 2026-04-26 18:40 | 49.57264 | 18.45827 | 28421 ft | 484 kts | 46° |
| 2026-04-26 18:40 | 49.59286 | 18.49963 | 27577 ft | 481 kts | 46° |
| 2026-04-26 18:40 | 49.61279 | 18.54044 | 26690 ft | 479 kts | 46° |
| 2026-04-26 18:40 | 49.63270 | 18.58128 | 25745 ft | 478 kts | 46° |
| 2026-04-26 18:41 | 49.65245 | 18.62184 | 24783 ft | 478 kts | 46° |
| 2026-04-26 18:41 | 49.67269 | 18.66236 | 23761 ft | 476 kts | 43° |
| 2026-04-26 18:41 | 49.69677 | 18.69542 | 23080 ft | 455 kts | 28° |
| 2026-04-26 18:41 | 49.72377 | 18.71789 | 22481 ft | 436 kts | 16° |
| 2026-04-26 18:42 | 49.75246 | 18.73104 | 21918 ft | 424 kts | 8° |
| 2026-04-26 18:42 | 49.78061 | 18.74141 | 21507 ft | 413 kts | 8° |
| 2026-04-26 18:42 | 49.80794 | 18.75127 | 21154 ft | 400 kts | 8° |
| 2026-04-26 18:42 | 49.83442 | 18.76095 | 20855 ft | 381 kts | 8° |
| 2026-04-26 18:43 | 49.85950 | 18.77045 | 20613 ft | 357 kts | 10° |
| 2026-04-26 18:43 | 49.88141 | 18.78606 | 20339 ft | 347 kts | 28° |
| 2026-04-26 18:43 | 49.89843 | 18.81161 | 20085 ft | 338 kts | 46° |
| 2026-04-26 18:43 | 49.90927 | 18.84333 | 19845 ft | 342 kts | 63° |
| 2026-04-26 18:44 | 49.91349 | 18.87991 | 19598 ft | 352 kts | 83° |
| 2026-04-26 18:44 | 49.91206 | 18.91770 | 19405 ft | 351 kts | 89° |
| 2026-04-26 18:44 | 49.90951 | 18.95503 | 19229 ft | 346 kts | 89° |
| 2026-04-26 18:44 | 49.90701 | 18.99166 | 19075 ft | 342 kts | 89° |
| 2026-04-26 18:45 | 49.90472 | 19.02829 | 18928 ft | 340 kts | 88° |
| 2026-04-26 18:45 | 49.90258 | 19.06501 | 18601 ft | 341 kts | 87° |
| 2026-04-26 18:45 | 49.90050 | 19.10130 | 18257 ft | 340 kts | 87° |
| 2026-04-26 18:45 | 49.89844 | 19.13747 | 17913 ft | 339 kts | 88° |
| 2026-04-26 18:46 | 49.89634 | 19.17385 | 17560 ft | 339 kts | 88° |
| 2026-04-26 18:46 | 49.89423 | 19.21005 | 17213 ft | 338 kts | 87° |
| 2026-04-26 18:46 | 49.89214 | 19.24588 | 16866 ft | 336 kts | 86° |
| 2026-04-26 18:46 | 49.89275 | 19.28116 | 16508 ft | 324 kts | 71° |
| 2026-04-26 18:47 | 49.89877 | 19.31413 | 16139 ft | 311 kts | 58° |
| 2026-04-26 18:47 | 49.90725 | 19.34443 | 15804 ft | 307 kts | 56° |
| 2026-04-26 18:47 | 49.91613 | 19.37460 | 15457 ft | 306 kts | 56° |
| 2026-04-26 18:47 | 49.92479 | 19.40447 | 15105 ft | 305 kts | 56° |
| 2026-04-26 18:48 | 49.93328 | 19.43428 | 14746 ft | 303 kts | 57° |
| 2026-04-26 18:48 | 49.94158 | 19.46415 | 14409 ft | 303 kts | 58° |
| 2026-04-26 18:48 | 49.94862 | 19.49522 | 14057 ft | 306 kts | 64° |
| 2026-04-26 18:48 | 49.95378 | 19.52707 | 13731 ft | 308 kts | 69° |
| 2026-04-26 18:49 | 49.95822 | 19.55974 | 13373 ft | 308 kts | 69° |
| 2026-04-26 18:49 | 49.96247 | 19.59195 | 13015 ft | 306 kts | 70° |
| 2026-04-26 18:49 | 49.96672 | 19.62403 | 12672 ft | 304 kts | 69° |
| 2026-04-26 18:49 | 49.97100 | 19.65595 | 12348 ft | 302 kts | 70° |
| 2026-04-26 18:50 | 49.97526 | 19.68756 | 12013 ft | 301 kts | 70° |
| 2026-04-26 18:50 | 49.97956 | 19.71942 | 11640 ft | 299 kts | 70° |
| 2026-04-26 18:50 | 49.98376 | 19.75063 | 11363 ft | 293 kts | 70° |
| 2026-04-26 18:50 | 49.98781 | 19.78077 | 11012 ft | 285 kts | 70° |
| 2026-04-26 18:51 | 49.99180 | 19.81039 | 10655 ft | 275 kts | 70° |
| 2026-04-26 18:51 | 49.99562 | 19.83888 | 10355 ft | 264 kts | 70° |
| 2026-04-26 18:51 | 49.99933 | 19.86632 | 10059 ft | 260 kts | 70° |
| 2026-04-26 18:51 | 50.00312 | 19.89389 | 9758 ft | 259 kts | 70° |
| 2026-04-26 18:52 | 50.00682 | 19.92093 | 9536 ft | 256 kts | 70° |
| 2026-04-26 18:52 | 50.01049 | 19.94787 | 9467 ft | 257 kts | 71° |
| 2026-04-26 18:52 | 50.01416 | 19.97512 | 9357 ft | 257 kts | 71° |
| 2026-04-26 18:52 | 50.01783 | 20.00241 | 9255 ft | 254 kts | 71° |
| 2026-04-26 18:53 | 50.02139 | 20.02888 | 8980 ft | 248 kts | 71° |
| 2026-04-26 18:53 | 50.02486 | 20.05451 | 8736 ft | 241 kts | 71° |
| 2026-04-26 18:53 | 50.02828 | 20.07984 | 8504 ft | 237 kts | 71° |
| 2026-04-26 18:53 | 50.03130 | 20.10446 | 8304 ft | 234 kts | 79° |
| 2026-04-26 18:54 | 50.02913 | 20.12965 | 8267 ft | 239 kts | 102° |
| 2026-04-26 18:54 | 50.02382 | 20.15430 | 8273 ft | 242 kts | 105° |
| 2026-04-26 18:54 | 50.01790 | 20.17893 | 8269 ft | 242 kts | 105° |
| 2026-04-26 18:54 | 50.01198 | 20.20312 | 8265 ft | 242 kts | 106° |
| 2026-04-26 18:55 | 50.00599 | 20.22756 | 8266 ft | 243 kts | 106° |
| 2026-04-26 18:55 | 50.00001 | 20.25212 | 8260 ft | 242 kts | 104° |
| 2026-04-26 18:55 | 49.99726 | 20.27709 | 8242 ft | 232 kts | 75° |
| 2026-04-26 18:55 | 50.00278 | 20.29939 | 8246 ft | 215 kts | 46° |
| 2026-04-26 18:56 | 50.01236 | 20.31648 | 8005 ft | 209 kts | 38° |
| 2026-04-26 18:56 | 50.02287 | 20.33234 | 7662 ft | 210 kts | 37° |
| 2026-04-26 18:56 | 50.03362 | 20.34785 | 7309 ft | 212 kts | 36° |
| 2026-04-26 18:56 | 50.04452 | 20.36319 | 6931 ft | 216 kts | 36° |
| 2026-04-26 18:57 | 50.05582 | 20.37879 | 6546 ft | 219 kts | 36° |
| 2026-04-26 18:57 | 50.06351 | 20.38925 | 6293 ft | 218 kts | 36° |
| 2026-04-26 18:57 | 50.07869 | 20.40988 | 5847 ft | 219 kts | 36° |
| 2026-04-26 18:57 | 50.09007 | 20.42530 | 5517 ft | 219 kts | 36° |
| 2026-04-26 18:58 | 50.10152 | 20.44074 | 5183 ft | 217 kts | 36° |
| 2026-04-26 18:58 | 50.11280 | 20.45596 | 4980 ft | 208 kts | 34° |
| 2026-04-26 18:58 | 50.12499 | 20.46562 | 4963 ft | 194 kts | 3° |
| 2026-04-26 18:58 | 50.13781 | 20.46193 | 4970 ft | 191 kts | 328° |
| 2026-04-26 18:59 | 50.14740 | 20.44740 | 4988 ft | 193 kts | 310° |
| 2026-04-26 18:59 | 50.15522 | 20.43038 | 4981 ft | 194 kts | 307° |
| 2026-04-26 18:59 | 50.16248 | 20.41267 | 4976 ft | 196 kts | 297° |
| 2026-04-26 18:59 | 50.16460 | 20.39163 | 4971 ft | 205 kts | 265° |
| 2026-04-26 19:00 | 50.16119 | 20.36991 | 4989 ft | 207 kts | 260° |
| 2026-04-26 19:00 | 50.15633 | 20.34850 | 4983 ft | 209 kts | 255° |
| 2026-04-26 19:00 | 50.15201 | 20.32718 | 4974 ft | 206 kts | 262° |
| 2026-04-26 19:00 | 50.14948 | 20.30533 | 4977 ft | 205 kts | 266° |
| 2026-04-26 19:01 | 50.14726 | 20.28343 | 4978 ft | 206 kts | 265° |
| 2026-04-26 19:01 | 50.14480 | 20.26130 | 4981 ft | 206 kts | 264° |
| 2026-04-26 19:01 | 50.14211 | 20.23943 | 4981 ft | 207 kts | 263° |
| 2026-04-26 19:01 | 50.13918 | 20.21745 | 4972 ft | 207 kts | 263° |
| 2026-04-26 19:02 | 50.13613 | 20.19567 | 4905 ft | 208 kts | 262° |
| 2026-04-26 19:02 | 50.13295 | 20.17356 | 4714 ft | 207 kts | 262° |
| 2026-04-26 19:02 | 50.12979 | 20.15197 | 4550 ft | 207 kts | 262° |
| 2026-04-26 19:02 | 50.12766 | 20.13743 | 4427 ft | 206 kts | 262° |
| 2026-04-26 19:03 | 50.12340 | 20.10832 | 4259 ft | 206 kts | 262° |
| 2026-04-26 19:03 | 50.12025 | 20.08655 | 4255 ft | 207 kts | 262° |
| 2026-04-26 19:03 | 50.11711 | 20.06482 | 4176 ft | 207 kts | 262° |
| 2026-04-26 19:03 | 50.11400 | 20.04310 | 4060 ft | 206 kts | 262° |
| 2026-04-26 19:04 | 50.11089 | 20.02134 | 3899 ft | 206 kts | 262° |
| 2026-04-26 19:04 | 50.10777 | 19.99934 | 3564 ft | 209 kts | 262° |
| 2026-04-26 19:04 | 50.10463 | 19.97708 | 3157 ft | 215 kts | 262° |
| 2026-04-26 19:04 | 50.10140 | 19.95416 | 2731 ft | 221 kts | 262° |
| 2026-04-26 19:05 | 50.09485 | 19.90789 | 2000 ft | 205 kts | 262° |
| 2026-04-26 19:05 | 50.09187 | 19.88658 | 2176 ft | 209 kts | 262° |
| 2026-04-26 19:05 | 50.08847 | 19.86526 | 3171 ft | 198 kts | 261° |
| 2026-04-26 19:06 | 50.08541 | 19.84540 | 4063 ft | 188 kts | 262° |
| 2026-04-26 19:06 | 50.08261 | 19.82532 | 4495 ft | 204 kts | 264° |
| 2026-04-26 19:06 | 50.08003 | 19.80285 | 4670 ft | 204 kts | 265° |
| 2026-04-26 19:06 | 50.07748 | 19.78177 | 4660 ft | 206 kts | 264° |
| 2026-04-26 19:07 | 50.07480 | 19.76076 | 4612 ft | 190 kts | 262° |
| 2026-04-26 19:07 | 50.07194 | 19.74118 | 4338 ft | 191 kts | 262° |
| 2026-04-26 19:07 | 50.06876 | 19.71854 | 4153 ft | 242 kts | 262° |
| 2026-04-26 19:07 | 50.06514 | 19.69209 | 3959 ft | 248 kts | 262° |
| 2026-04-26 19:08 | 50.06134 | 19.66465 | 3805 ft | 280 kts | 262° |
| 2026-04-26 19:08 | 50.05720 | 19.63418 | 3738 ft | 289 kts | 261° |
| 2026-04-26 19:08 | 50.05299 | 19.60486 | 3898 ft | 265 kts | 260° |
| 2026-04-26 19:08 | 50.04884 | 19.57726 | 4017 ft | 261 kts | 261° |
| 2026-04-26 19:09 | 50.04478 | 19.54985 | 4010 ft | 260 kts | 261° |
| 2026-04-26 19:09 | 50.04080 | 19.52231 | 4007 ft | 260 kts | 261° |
| 2026-04-26 19:09 | 50.03686 | 19.49492 | 3997 ft | 260 kts | 261° |
| 2026-04-26 19:09 | 50.03313 | 19.46786 | 3993 ft | 258 kts | 265° |
| 2026-04-26 19:10 | 50.03420 | 19.44072 | 3991 ft | 252 kts | 289° |
| 2026-04-26 19:10 | 50.03826 | 19.41407 | 3989 ft | 255 kts | 276° |
| 2026-04-26 19:10 | 50.03496 | 19.38710 | 3989 ft | 262 kts | 247° |
| 2026-04-26 19:10 | 50.02336 | 19.36514 | 3991 ft | 269 kts | 218° |
| 2026-04-26 19:11 | 50.00597 | 19.35391 | 3992 ft | 274 kts | 189° |
| 2026-04-26 19:11 | 49.98711 | 19.35646 | 3985 ft | 275 kts | 160° |
| 2026-04-26 19:11 | 49.97142 | 19.37166 | 3981 ft | 261 kts | 134° |
| 2026-04-26 19:11 | 49.95957 | 19.39193 | 3979 ft | 244 kts | 128° |
| 2026-04-26 19:12 | 49.94910 | 19.41177 | 3979 ft | 239 kts | 127° |
| 2026-04-26 19:12 | 49.93869 | 19.43192 | 3979 ft | 238 kts | 125° |
| 2026-04-26 19:12 | 49.93114 | 19.45419 | 3972 ft | 233 kts | 98° |
| 2026-04-26 19:12 | 49.93027 | 19.47895 | 3983 ft | 230 kts | 84° |
| 2026-04-26 19:13 | 49.93142 | 19.50373 | 3983 ft | 229 kts | 81° |
| 2026-04-26 19:13 | 49.93290 | 19.52800 | 3986 ft | 229 kts | 81° |
| 2026-04-26 19:13 | 49.93435 | 19.55276 | 3986 ft | 229 kts | 82° |
| 2026-04-26 19:13 | 49.93574 | 19.57719 | 3985 ft | 230 kts | 81° |
| 2026-04-26 19:14 | 49.93715 | 19.60211 | 3982 ft | 230 kts | 81° |
| 2026-04-26 19:14 | 49.93851 | 19.62670 | 3982 ft | 230 kts | 81° |
| 2026-04-26 19:14 | 49.94030 | 19.65111 | 3986 ft | 229 kts | 78° |
| 2026-04-26 19:14 | 49.94202 | 19.66755 | 3987 ft | 228 kts | 77° |
| 2026-04-26 19:15 | 49.94566 | 19.69977 | 3985 ft | 229 kts | 76° |
| 2026-04-26 19:15 | 49.94840 | 19.72407 | 3986 ft | 230 kts | 76° |
| 2026-04-26 19:15 | 49.95121 | 19.74870 | 3980 ft | 229 kts | 76° |
| 2026-04-26 19:15 | 49.95399 | 19.77279 | 3987 ft | 229 kts | 76° |
| 2026-04-26 19:16 | 49.95677 | 19.79716 | 3991 ft | 230 kts | 76° |
| 2026-04-26 19:16 | 49.95951 | 19.82169 | 3991 ft | 229 kts | 76° |
| 2026-04-26 19:16 | 49.96220 | 19.84613 | 3989 ft | 229 kts | 76° |
| 2026-04-26 19:16 | 49.96488 | 19.87046 | 3985 ft | 230 kts | 76° |
| 2026-04-26 19:17 | 49.96757 | 19.89484 | 3992 ft | 230 kts | 76° |
| 2026-04-26 19:17 | 49.97028 | 19.91922 | 4005 ft | 230 kts | 76° |
| 2026-04-26 19:17 | 49.97297 | 19.94367 | 3993 ft | 230 kts | 76° |
| 2026-04-26 19:17 | 49.97566 | 19.96801 | 3995 ft | 230 kts | 76° |
| 2026-04-26 19:18 | 49.97836 | 19.99239 | 3987 ft | 231 kts | 76° |
| 2026-04-26 19:18 | 49.98111 | 20.01725 | 3994 ft | 232 kts | 76° |
| 2026-04-26 19:18 | 49.98385 | 20.04178 | 3997 ft | 231 kts | 76° |
| 2026-04-26 19:18 | 49.98656 | 20.06643 | 3994 ft | 231 kts | 76° |
| 2026-04-26 19:19 | 49.98918 | 20.09071 | 3991 ft | 230 kts | 76° |
| 2026-04-26 19:19 | 49.99183 | 20.11529 | 3993 ft | 230 kts | 76° |
| 2026-04-26 19:19 | 49.99442 | 20.13969 | 3990 ft | 230 kts | 76° |
| 2026-04-26 19:19 | 49.99701 | 20.16412 | 3986 ft | 229 kts | 74° |
| 2026-04-26 19:20 | 50.00280 | 20.18642 | 3979 ft | 220 kts | 45° |
| 2026-04-26 19:20 | 50.01051 | 20.19662 | 3984 ft | 215 kts | 22° |
| 2026-04-26 19:20 | 50.02949 | 20.19907 | 3994 ft | 211 kts | 350° |
| 2026-04-26 19:20 | 50.04392 | 20.19456 | 3987 ft | 211 kts | 347° |
| 2026-04-26 19:21 | 50.05828 | 20.18937 | 3981 ft | 211 kts | 346° |
| 2026-04-26 19:21 | 50.07256 | 20.18410 | 3976 ft | 211 kts | 346° |
| 2026-04-26 19:21 | 50.08672 | 20.17886 | 3979 ft | 211 kts | 346° |
| 2026-04-26 19:21 | 50.10115 | 20.17350 | 3984 ft | 211 kts | 345° |
| 2026-04-26 19:22 | 50.11432 | 20.16406 | 3962 ft | 213 kts | 316° |
| 2026-04-26 19:22 | 50.12092 | 20.14399 | 3971 ft | 211 kts | 283° |
| 2026-04-26 19:22 | 50.12120 | 20.12141 | 3963 ft | 201 kts | 272° |
| 2026-04-26 19:22 | 50.12002 | 20.10038 | 3980 ft | 194 kts | 268° |
| 2026-04-26 19:23 | 50.11824 | 20.08007 | 4060 ft | 181 kts | 266° |
| 2026-04-26 19:23 | 50.11626 | 20.06203 | 3992 ft | 160 kts | 265° |
| 2026-04-26 19:23 | 50.11418 | 20.04569 | 3948 ft | 150 kts | 264° |
| 2026-04-26 19:23 | 50.11208 | 20.02983 | 3765 ft | 149 kts | 264° |
| 2026-04-26 19:24 | 50.10992 | 20.01419 | 3579 ft | 148 kts | 264° |
| 2026-04-26 19:24 | 50.10778 | 19.99907 | 3384 ft | 138 kts | 264° |
| 2026-04-26 19:24 | 50.10371 | 19.97049 | 3006 ft | 136 kts | 262° |
| 2026-04-26 19:25 | 50.10128 | 19.95626 | 2830 ft | 135 kts | 261° |
| 2026-04-26 19:25 | 50.09969 | 19.94693 | 2712 ft | 135 kts | 262° |
| 2026-04-26 19:25 | 50.09685 | 19.92811 | 2455 ft | 133 kts | 268° |
| 2026-04-26 19:25 | 50.09542 | 19.91399 | 2316 ft | 133 kts | 266° |
| 2026-04-26 19:26 | 50.09363 | 19.89978 | 2143 ft | 133 kts | 265° |
| 2026-04-26 19:26 | 50.09161 | 19.88573 | 1947 ft | 134 kts | 264° |
| 2026-04-26 19:26 | 50.08961 | 19.87162 | 1738 ft | 133 kts | 265° |
| 2026-04-26 19:26 | 50.08786 | 19.85752 | 1547 ft | 132 kts | 265° |
| 2026-04-26 19:27 | 50.08582 | 19.84359 | 1422 ft | 133 kts | 261° |
| 2026-04-26 19:27 | 50.08384 | 19.82963 | 1265 ft | 132 kts | 263° |
| 2026-04-26 19:27 | 50.08201 | 19.81564 | 1058 ft | 132 kts | 261° |
| 2026-04-26 19:27 | 50.08007 | 19.80169 | 866 ft | 131 kts | 261° |
| 2026-04-26 19:28 | 50.07827 | 19.78844 | 798 ft | 105 kts | 258° |
| 2026-04-26 19:28 | 50.07722 | 19.78111 | 798 ft | 54 kts | 258° |
| 2026-04-26 19:28 | 50.07647 | 19.77587 | 798 ft | 47 kts | 258° |
| 2026-04-26 19:28 | 50.07595 | 19.77186 | 798 ft | 31 kts | 260° |
| 2026-04-26 19:29 | 50.07561 | 19.76933 | 798 ft | 16 kts | 258° |
| 2026-04-26 19:29 | 50.07496 | 19.76847 | 798 ft | 9 kts | 177° |
| 2026-04-26 19:29 | 50.07424 | 19.76871 | 798 ft | 11 kts | 168° |
| 2026-04-26 19:29 | 50.07350 | 19.76895 | 798 ft | 10 kts | 169° |
| 2026-04-26 19:30 | 50.07307 | 19.76964 | 798 ft | 10 kts | 85° |
| 2026-04-26 19:30 | 50.07324 | 19.77082 | 798 ft | 12 kts | 78° |
| 2026-04-26 19:30 | 50.07341 | 19.77216 | 798 ft | 13 kts | 79° |
| 2026-04-26 19:30 | 50.07357 | 19.77310 | 798 ft | 13 kts | 74° |
| 2026-04-26 19:31 | 50.07389 | 19.77531 | 798 ft | 23 kts | 78° |
| 2026-04-26 19:31 | 50.07432 | 19.77850 | 798 ft | 32 kts | 78° |
| 2026-04-26 19:31 | 50.07477 | 19.78171 | 798 ft | 29 kts | 77° |
| 2026-04-26 19:31 | 50.07516 | 19.78458 | 798 ft | 23 kts | 78° |
| 2026-04-26 19:32 | 50.07552 | 19.78708 | 798 ft | 23 kts | 77° |
| 2026-04-26 19:32 | 50.07585 | 19.78950 | 798 ft | 22 kts | 78° |
| 2026-04-26 19:32 | 50.07619 | 19.79189 | 798 ft | 22 kts | 77° |
| 2026-04-26 19:32 | 50.07652 | 19.79426 | 798 ft | 21 kts | 77° |
| 2026-04-26 19:33 | 50.07674 | 19.79586 | 798 ft | 14 kts | 76° |
| 2026-04-26 19:33 | 50.07667 | 19.79685 | 798 ft | 8 kts | 140° |
| 2026-04-26 19:33 | 50.07602 | 19.79709 | 798 ft | 10 kts | 168° |
| 2026-04-26 19:33 | 50.07534 | 19.79735 | 798 ft | 6 kts | 168° |
| 2026-04-26 19:34 | 50.07491 | 19.79751 | 798 ft | 2 kts | 166° |
| 2026-04-26 19:34 | 50.07468 | 19.79759 | 798 ft | 4 kts | 167° |
| 2026-04-26 19:34 | 50.07465 | 19.79760 | 798 ft | 0 kts | 167° |
| 2026-04-26 19:35 | 50.07464 | 19.79760 | 798 ft | 0 kts | 167° |
| 2026-04-26 19:35 | 50.07450 | 19.79765 | 798 ft | 2 kts | 166° |
| 2026-04-26 19:36 | 50.07449 | 19.79766 | 798 ft | 0 kts | 166° |
| 2026-04-26 19:36 | 50.07443 | 19.79768 | 798 ft | 3 kts | 166° |
| 2026-04-26 19:36 | 50.07383 | 19.79791 | 798 ft | 10 kts | 172° |
| 2026-04-26 19:36 | 50.07340 | 19.79787 | 798 ft | 5 kts | 183° |
| 2026-04-26 19:37 | 50.07303 | 19.79797 | 798 ft | 1 kts | 167° |
| 2026-04-26 19:37 | 50.07295 | 19.79800 | 798 ft | 0 kts | 166° |